UA2638 KORD-KIAH
Flight info
| Callsign | UA2638 |
|---|---|
| Flight time | 2h 4m |
| Altitude | 38000 |
| Route | BACEN BLOKR BEKKI FAM J137 LIT EDWAH Q33 SWEUP DOOBI3 |
| Aircraft | A21N/M-SDE2E3FGHIRWXY/LB1 |
Departure
| Time | 2026-05-04 19:06 |
|---|---|
| Airport | Chicago O'Hare International Airport (KORD) |
Arrival
| Time | 2026-05-04 21:10 |
|---|---|
| Airport | George Bush Intercontinental Airport (KIAH) |
| Time | Latitude | Longitude | Altitude | Speed | Heading |
|---|---|---|---|---|---|
| 2026-05-04 18:15 | 41.97835 | -87.91141 | 668 ft | 0 kts | 97° |
| 2026-05-04 18:52 | 41.97837 | -87.91156 | 668 ft | 3 kts | 92° |
| 2026-05-04 18:52 | 41.97836 | -87.91185 | 667 ft | 3 kts | 79° |
| 2026-05-04 18:52 | 41.97832 | -87.91204 | 667 ft | 3 kts | 71° |
| 2026-05-04 18:52 | 41.97825 | -87.91231 | 668 ft | 3 kts | 68° |
| 2026-05-04 18:53 | 41.97818 | -87.91253 | 668 ft | 3 kts | 77° |
| 2026-05-04 18:53 | 41.97819 | -87.91287 | 668 ft | 3 kts | 128° |
| 2026-05-04 18:53 | 41.97834 | -87.91302 | 666 ft | 3 kts | 172° |
| 2026-05-04 18:53 | 41.97844 | -87.91303 | 666 ft | 1 kts | 178° |
| 2026-05-04 18:57 | 41.97831 | -87.91302 | 665 ft | 4 kts | 177° |
| 2026-05-04 18:57 | 41.97809 | -87.91301 | 668 ft | 3 kts | 177° |
| 2026-05-04 18:58 | 41.97791 | -87.91300 | 670 ft | 2 kts | 179° |
| 2026-05-04 18:58 | 41.97782 | -87.91303 | 670 ft | 1 kts | 197° |
| 2026-05-04 18:58 | 41.97770 | -87.91311 | 668 ft | 4 kts | 212° |
| 2026-05-04 18:58 | 41.97741 | -87.91356 | 670 ft | 9 kts | 230° |
| 2026-05-04 18:59 | 41.97681 | -87.91362 | 672 ft | 11 kts | 160° |
| 2026-05-04 18:59 | 41.97610 | -87.91382 | 674 ft | 12 kts | 224° |
| 2026-05-04 18:59 | 41.97540 | -87.91456 | 676 ft | 15 kts | 204° |
| 2026-05-04 18:59 | 41.97427 | -87.91459 | 676 ft | 18 kts | 158° |
| 2026-05-04 19:00 | 41.97315 | -87.91348 | 676 ft | 22 kts | 142° |
| 2026-05-04 19:00 | 41.97185 | -87.91214 | 677 ft | 25 kts | 143° |
| 2026-05-04 19:00 | 41.97052 | -87.91030 | 672 ft | 30 kts | 118° |
| 2026-05-04 19:00 | 41.97044 | -87.90733 | 669 ft | 35 kts | 90° |
| 2026-05-04 19:01 | 41.97042 | -87.90404 | 668 ft | 36 kts | 90° |
| 2026-05-04 19:01 | 41.97041 | -87.90076 | 672 ft | 34 kts | 90° |
| 2026-05-04 19:01 | 41.97039 | -87.89759 | 673 ft | 34 kts | 88° |
| 2026-05-04 19:01 | 41.97044 | -87.89489 | 671 ft | 26 kts | 89° |
| 2026-05-04 19:02 | 41.97046 | -87.89238 | 666 ft | 28 kts | 90° |
| 2026-05-04 19:02 | 41.97043 | -87.88962 | 661 ft | 31 kts | 89° |
| 2026-05-04 19:02 | 41.97044 | -87.88684 | 660 ft | 24 kts | 91° |
| 2026-05-04 19:02 | 41.97043 | -87.88462 | 661 ft | 24 kts | 91° |
| 2026-05-04 19:03 | 41.97047 | -87.88242 | 664 ft | 23 kts | 88° |
| 2026-05-04 19:03 | 41.97046 | -87.88101 | 667 ft | 0 kts | 104° |
| 2026-05-04 19:03 | 41.97046 | -87.88100 | 667 ft | 0 kts | 104° |
| 2026-05-04 19:03 | 41.97040 | -87.88077 | 665 ft | 4 kts | 112° |
| 2026-05-04 19:04 | 41.97022 | -87.88048 | 668 ft | 4 kts | 144° |
| 2026-05-04 19:04 | 41.96990 | -87.88031 | 668 ft | 6 kts | 170° |
| 2026-05-04 19:04 | 41.96950 | -87.88037 | 669 ft | 6 kts | 210° |
| 2026-05-04 19:04 | 41.96945 | -87.88041 | 669 ft | 0 kts | 214° |
| 2026-05-04 19:05 | 41.96869 | -87.88124 | 667 ft | 32 kts | 223° |
| 2026-05-04 19:05 | 41.96548 | -87.88505 | 670 ft | 92 kts | 220° |
| 2026-05-04 19:05 | 41.95889 | -87.89275 | 676 ft | 160 kts | 221° |
| 2026-05-04 19:05 | 41.94994 | -87.90251 | 1179 ft | 164 kts | 217° |
| 2026-05-04 19:06 | 41.94112 | -87.91209 | 2004 ft | 160 kts | 216° |
| 2026-05-04 19:06 | 41.93067 | -87.91739 | 2784 ft | 168 kts | 202° |
| 2026-05-04 19:06 | 41.91884 | -87.92088 | 3162 ft | 195 kts | 194° |
| 2026-05-04 19:06 | 41.90431 | -87.92307 | 3454 ft | 227 kts | 190° |
| 2026-05-04 19:07 | 41.88772 | -87.92492 | 3871 ft | 249 kts | 189° |
| 2026-05-04 19:07 | 41.87220 | -87.92685 | 4616 ft | 252 kts | 191° |
| 2026-05-04 19:07 | 41.85489 | -87.92949 | 5485 ft | 257 kts | 192° |
| 2026-05-04 19:07 | 41.83892 | -87.93238 | 6344 ft | 260 kts | 193° |
| 2026-05-04 19:08 | 41.82143 | -87.93597 | 7236 ft | 264 kts | 194° |
| 2026-05-04 19:08 | 41.80347 | -87.93995 | 8149 ft | 268 kts | 195° |
| 2026-05-04 19:08 | 41.78489 | -87.94422 | 9056 ft | 273 kts | 196° |
| 2026-05-04 19:08 | 41.76608 | -87.94859 | 9903 ft | 277 kts | 196° |
| 2026-05-04 19:09 | 41.74686 | -87.95309 | 10473 ft | 292 kts | 197° |
| 2026-05-04 19:09 | 41.72607 | -87.95803 | 10799 ft | 315 kts | 196° |
| 2026-05-04 19:09 | 41.70429 | -87.96314 | 11269 ft | 330 kts | 195° |
| 2026-05-04 19:09 | 41.68134 | -87.96837 | 11993 ft | 338 kts | 195° |
| 2026-05-04 19:10 | 41.66167 | -87.97276 | 12655 ft | 342 kts | 195° |
| 2026-05-04 19:10 | 41.63804 | -87.97800 | 13451 ft | 347 kts | 194° |
| 2026-05-04 19:10 | 41.61403 | -87.98332 | 14189 ft | 351 kts | 194° |
| 2026-05-04 19:10 | 41.59189 | -87.98824 | 14891 ft | 354 kts | 194° |
| 2026-05-04 19:11 | 41.56773 | -87.99363 | 15652 ft | 357 kts | 195° |
| 2026-05-04 19:11 | 41.54314 | -87.99914 | 16402 ft | 360 kts | 195° |
| 2026-05-04 19:11 | 41.51835 | -88.00470 | 17165 ft | 363 kts | 195° |
| 2026-05-04 19:11 | 41.49923 | -88.00900 | 17703 ft | 366 kts | 195° |
| 2026-05-04 19:12 | 41.47399 | -88.01469 | 18357 ft | 369 kts | 195° |
| 2026-05-04 19:12 | 41.42351 | -88.02605 | 19496 ft | 378 kts | 194° |
| 2026-05-04 19:12 | 41.39828 | -88.03234 | 20036 ft | 381 kts | 197° |
| 2026-05-04 19:13 | 41.37233 | -88.04030 | 20607 ft | 384 kts | 198° |
| 2026-05-04 19:13 | 41.34638 | -88.04913 | 21178 ft | 387 kts | 199° |
| 2026-05-04 19:13 | 41.32023 | -88.05839 | 21710 ft | 392 kts | 199° |
| 2026-05-04 19:13 | 41.29366 | -88.06785 | 22199 ft | 397 kts | 198° |
| 2026-05-04 19:14 | 41.26686 | -88.07730 | 22742 ft | 401 kts | 198° |
| 2026-05-04 19:14 | 41.24005 | -88.08633 | 23261 ft | 405 kts | 197° |
| 2026-05-04 19:14 | 41.21247 | -88.09478 | 23707 ft | 409 kts | 195° |
| 2026-05-04 19:14 | 41.18427 | -88.10291 | 24154 ft | 411 kts | 195° |
| 2026-05-04 19:15 | 41.15609 | -88.11084 | 24574 ft | 414 kts | 195° |
| 2026-05-04 19:15 | 41.12819 | -88.11865 | 24977 ft | 417 kts | 195° |
| 2026-05-04 19:15 | 41.09965 | -88.12667 | 25377 ft | 420 kts | 195° |
| 2026-05-04 19:15 | 41.07063 | -88.13488 | 25801 ft | 422 kts | 195° |
| 2026-05-04 19:16 | 41.04181 | -88.14307 | 26189 ft | 425 kts | 195° |
| 2026-05-04 19:16 | 41.01322 | -88.15123 | 26576 ft | 427 kts | 195° |
| 2026-05-04 19:16 | 40.98453 | -88.15943 | 26947 ft | 429 kts | 195° |
| 2026-05-04 19:16 | 40.95568 | -88.16768 | 27311 ft | 432 kts | 195° |
| 2026-05-04 19:17 | 40.92633 | -88.17606 | 27669 ft | 434 kts | 195° |
| 2026-05-04 19:17 | 40.89716 | -88.18439 | 28020 ft | 436 kts | 195° |
| 2026-05-04 19:17 | 40.86742 | -88.19284 | 28432 ft | 437 kts | 196° |
| 2026-05-04 19:17 | 40.83765 | -88.20131 | 28796 ft | 438 kts | 196° |
| 2026-05-04 19:18 | 40.80776 | -88.20982 | 29111 ft | 441 kts | 196° |
| 2026-05-04 19:18 | 40.77770 | -88.21837 | 29431 ft | 443 kts | 196° |
| 2026-05-04 19:18 | 40.74788 | -88.22683 | 29846 ft | 442 kts | 196° |
| 2026-05-04 19:18 | 40.71798 | -88.23529 | 30214 ft | 441 kts | 196° |
| 2026-05-04 19:19 | 40.68808 | -88.24376 | 30540 ft | 441 kts | 196° |
| 2026-05-04 19:19 | 40.65798 | -88.25227 | 30865 ft | 441 kts | 196° |
| 2026-05-04 19:19 | 40.62791 | -88.26077 | 31193 ft | 441 kts | 197° |
| 2026-05-04 19:19 | 40.59795 | -88.26923 | 31514 ft | 441 kts | 197° |
| 2026-05-04 19:20 | 40.56798 | -88.27770 | 31823 ft | 441 kts | 197° |
| 2026-05-04 19:20 | 40.53798 | -88.28616 | 32144 ft | 440 kts | 197° |
| 2026-05-04 19:20 | 40.50887 | -88.29436 | 32435 ft | 440 kts | 197° |
| 2026-05-04 19:20 | 40.47906 | -88.30275 | 32718 ft | 440 kts | 197° |
| 2026-05-04 19:21 | 40.44912 | -88.31116 | 33006 ft | 439 kts | 197° |
| 2026-05-04 19:21 | 40.41956 | -88.31944 | 33406 ft | 436 kts | 197° |
| 2026-05-04 19:21 | 40.38974 | -88.32781 | 33684 ft | 436 kts | 197° |
| 2026-05-04 19:21 | 40.35997 | -88.33617 | 33896 ft | 437 kts | 197° |
| 2026-05-04 19:22 | 40.33057 | -88.34595 | 34090 ft | 433 kts | 203° |
| 2026-05-04 19:22 | 40.30280 | -88.36050 | 34287 ft | 428 kts | 211° |
| 2026-05-04 19:22 | 40.27633 | -88.37813 | 34495 ft | 426 kts | 213° |
| 2026-05-04 19:22 | 40.25035 | -88.39668 | 34696 ft | 425 kts | 214° |
| 2026-05-04 19:23 | 40.22657 | -88.41428 | 34881 ft | 424 kts | 215° |
| 2026-05-04 19:23 | 40.20128 | -88.43327 | 35115 ft | 423 kts | 215° |
| 2026-05-04 19:23 | 40.17575 | -88.45252 | 35307 ft | 423 kts | 215° |
| 2026-05-04 19:23 | 40.15125 | -88.47093 | 35462 ft | 423 kts | 215° |
| 2026-05-04 19:24 | 40.12561 | -88.49010 | 35626 ft | 424 kts | 215° |
| 2026-05-04 19:24 | 40.09994 | -88.50921 | 35791 ft | 424 kts | 214° |
| 2026-05-04 19:24 | 40.07436 | -88.52816 | 35963 ft | 424 kts | 214° |
| 2026-05-04 19:24 | 40.04877 | -88.54707 | 36123 ft | 424 kts | 214° |
| 2026-05-04 19:25 | 40.02319 | -88.56594 | 36289 ft | 424 kts | 214° |
| 2026-05-04 19:25 | 39.99868 | -88.58399 | 36445 ft | 424 kts | 215° |
| 2026-05-04 19:25 | 39.97301 | -88.60288 | 36612 ft | 423 kts | 215° |
| 2026-05-04 19:25 | 39.94743 | -88.62171 | 36747 ft | 423 kts | 215° |
| 2026-05-04 19:26 | 39.92174 | -88.64061 | 36879 ft | 424 kts | 215° |
| 2026-05-04 19:26 | 39.89609 | -88.65946 | 37005 ft | 424 kts | 215° |
| 2026-05-04 19:26 | 39.87032 | -88.67838 | 37131 ft | 424 kts | 215° |
| 2026-05-04 19:26 | 39.84469 | -88.69719 | 37254 ft | 424 kts | 215° |
| 2026-05-04 19:27 | 39.81887 | -88.71611 | 37358 ft | 425 kts | 215° |
| 2026-05-04 19:27 | 39.76719 | -88.75396 | 37371 ft | 427 kts | 215° |
| 2026-05-04 19:28 | 39.71554 | -88.79169 | 37375 ft | 426 kts | 215° |
| 2026-05-04 19:28 | 39.66381 | -88.82943 | 37377 ft | 429 kts | 215° |
| 2026-05-04 19:29 | 39.61139 | -88.86765 | 37384 ft | 435 kts | 215° |
| 2026-05-04 19:29 | 39.55822 | -88.90634 | 37390 ft | 441 kts | 215° |
| 2026-05-04 19:30 | 39.50427 | -88.94549 | 37403 ft | 448 kts | 215° |
| 2026-05-04 19:30 | 39.44953 | -88.98513 | 37412 ft | 452 kts | 214° |
| 2026-05-04 19:31 | 39.39467 | -89.02473 | 37415 ft | 451 kts | 214° |
| 2026-05-04 19:31 | 39.33995 | -89.06419 | 37398 ft | 451 kts | 214° |
| 2026-05-04 19:32 | 39.28524 | -89.10360 | 37411 ft | 451 kts | 214° |
| 2026-05-04 19:32 | 39.23051 | -89.14295 | 37418 ft | 451 kts | 214° |
| 2026-05-04 19:33 | 39.17563 | -89.18235 | 37417 ft | 451 kts | 214° |
| 2026-05-04 19:33 | 39.12080 | -89.22164 | 37414 ft | 451 kts | 214° |
| 2026-05-04 19:34 | 39.06595 | -89.26083 | 37414 ft | 450 kts | 214° |
| 2026-05-04 19:34 | 39.01158 | -89.29964 | 37422 ft | 450 kts | 214° |
| 2026-05-04 19:35 | 38.95653 | -89.33890 | 37421 ft | 450 kts | 214° |
| 2026-05-04 19:35 | 38.90215 | -89.37760 | 37426 ft | 450 kts | 214° |
| 2026-05-04 19:36 | 38.84744 | -89.41645 | 37419 ft | 449 kts | 214° |
| 2026-05-04 19:36 | 38.79284 | -89.45515 | 37419 ft | 449 kts | 214° |
| 2026-05-04 19:37 | 38.73817 | -89.49383 | 37430 ft | 449 kts | 214° |
| 2026-05-04 19:37 | 38.68347 | -89.53249 | 37429 ft | 449 kts | 214° |
| 2026-05-04 19:38 | 38.62888 | -89.57097 | 37430 ft | 449 kts | 215° |
| 2026-05-04 19:38 | 38.58301 | -89.60326 | 37435 ft | 448 kts | 215° |
| 2026-05-04 19:39 | 38.52831 | -89.64171 | 37437 ft | 448 kts | 215° |
| 2026-05-04 19:39 | 38.47367 | -89.68006 | 37438 ft | 448 kts | 215° |
| 2026-05-04 19:40 | 38.41933 | -89.71812 | 37444 ft | 448 kts | 215° |
| 2026-05-04 19:40 | 38.36464 | -89.75636 | 37434 ft | 448 kts | 215° |
| 2026-05-04 19:41 | 38.30991 | -89.79456 | 37440 ft | 449 kts | 214° |
| 2026-05-04 19:41 | 38.25520 | -89.83269 | 37448 ft | 449 kts | 214° |
| 2026-05-04 19:42 | 38.20042 | -89.87079 | 37445 ft | 449 kts | 214° |
| 2026-05-04 19:42 | 38.14568 | -89.90879 | 37450 ft | 448 kts | 215° |
| 2026-05-04 19:43 | 38.09106 | -89.94665 | 37460 ft | 447 kts | 215° |
| 2026-05-04 19:43 | 38.03641 | -89.98448 | 37462 ft | 448 kts | 215° |
| 2026-05-04 19:44 | 37.98164 | -90.02232 | 37470 ft | 448 kts | 215° |
| 2026-05-04 19:44 | 37.92698 | -90.06002 | 37528 ft | 448 kts | 215° |
| 2026-05-04 19:44 | 37.89982 | -90.07872 | 37721 ft | 447 kts | 215° |
| 2026-05-04 19:45 | 37.87241 | -90.09758 | 37781 ft | 448 kts | 215° |
| 2026-05-04 19:45 | 37.81765 | -90.13522 | 37782 ft | 447 kts | 215° |
| 2026-05-04 19:46 | 37.76297 | -90.17274 | 37786 ft | 447 kts | 215° |
| 2026-05-04 19:46 | 37.70826 | -90.21021 | 37760 ft | 447 kts | 215° |
| 2026-05-04 19:47 | 37.65173 | -90.24383 | 37787 ft | 452 kts | 208° |
| 2026-05-04 19:47 | 37.59292 | -90.27243 | 37789 ft | 454 kts | 207° |
| 2026-05-04 19:48 | 37.53368 | -90.30004 | 37792 ft | 454 kts | 207° |
| 2026-05-04 19:48 | 37.47452 | -90.32750 | 37760 ft | 454 kts | 207° |
| 2026-05-04 19:49 | 37.41535 | -90.35506 | 37803 ft | 453 kts | 207° |
| 2026-05-04 19:49 | 37.35619 | -90.38267 | 37801 ft | 453 kts | 207° |
| 2026-05-04 19:50 | 37.29704 | -90.41026 | 37809 ft | 454 kts | 207° |
| 2026-05-04 19:50 | 37.23778 | -90.43785 | 37808 ft | 454 kts | 207° |
| 2026-05-04 19:51 | 37.17843 | -90.46541 | 37808 ft | 455 kts | 208° |
| 2026-05-04 19:51 | 37.11900 | -90.49297 | 37809 ft | 455 kts | 207° |
| 2026-05-04 19:52 | 37.05999 | -90.52029 | 37809 ft | 455 kts | 207° |
| 2026-05-04 19:52 | 37.00050 | -90.54777 | 37811 ft | 456 kts | 207° |
| 2026-05-04 19:53 | 36.94101 | -90.57520 | 37814 ft | 456 kts | 208° |
| 2026-05-04 19:53 | 36.88142 | -90.60263 | 37814 ft | 456 kts | 208° |
| 2026-05-04 19:54 | 36.82184 | -90.63000 | 37812 ft | 456 kts | 208° |
| 2026-05-04 19:54 | 36.76219 | -90.65737 | 37812 ft | 456 kts | 208° |
| 2026-05-04 19:55 | 36.70258 | -90.68468 | 37817 ft | 457 kts | 208° |
| 2026-05-04 19:55 | 36.64283 | -90.71201 | 37820 ft | 457 kts | 208° |
| 2026-05-04 19:56 | 36.58308 | -90.73929 | 37822 ft | 457 kts | 208° |
| 2026-05-04 19:56 | 36.52329 | -90.76653 | 37818 ft | 458 kts | 208° |
| 2026-05-04 19:57 | 36.46342 | -90.79378 | 37825 ft | 459 kts | 208° |
| 2026-05-04 19:57 | 36.40333 | -90.82110 | 37839 ft | 460 kts | 208° |
| 2026-05-04 19:58 | 36.34310 | -90.84840 | 37847 ft | 461 kts | 208° |
| 2026-05-04 19:58 | 36.28292 | -90.87564 | 37848 ft | 461 kts | 208° |
| 2026-05-04 19:59 | 36.22284 | -90.90281 | 37846 ft | 461 kts | 208° |
| 2026-05-04 19:59 | 36.16295 | -90.92984 | 37853 ft | 461 kts | 208° |
| 2026-05-04 20:00 | 36.10561 | -90.96108 | 37846 ft | 448 kts | 220° |
| 2026-05-04 20:00 | 36.05586 | -91.00369 | 37847 ft | 442 kts | 224° |
| 2026-05-04 20:01 | 36.00686 | -91.04961 | 37858 ft | 441 kts | 225° |
| 2026-05-04 20:01 | 35.95819 | -91.09586 | 37852 ft | 441 kts | 225° |
| 2026-05-04 20:02 | 35.90943 | -91.14182 | 37868 ft | 442 kts | 225° |
| 2026-05-04 20:02 | 35.86042 | -91.18767 | 37867 ft | 443 kts | 225° |
| 2026-05-04 20:03 | 35.81129 | -91.23351 | 37874 ft | 443 kts | 225° |
| 2026-05-04 20:03 | 35.76214 | -91.27929 | 37875 ft | 443 kts | 225° |
| 2026-05-04 20:04 | 35.71300 | -91.32495 | 37886 ft | 443 kts | 226° |
| 2026-05-04 20:04 | 35.66346 | -91.37095 | 37886 ft | 443 kts | 226° |
| 2026-05-04 20:05 | 35.61428 | -91.41655 | 37886 ft | 443 kts | 226° |
| 2026-05-04 20:05 | 35.56511 | -91.46206 | 37888 ft | 443 kts | 226° |
| 2026-05-04 20:06 | 35.51588 | -91.50755 | 37889 ft | 443 kts | 226° |
| 2026-05-04 20:06 | 35.46652 | -91.55305 | 37882 ft | 443 kts | 227° |
| 2026-05-04 20:07 | 35.41757 | -91.59815 | 37898 ft | 443 kts | 227° |
| 2026-05-04 20:07 | 35.36833 | -91.64347 | 37898 ft | 443 kts | 227° |
| 2026-05-04 20:08 | 35.31906 | -91.68873 | 37899 ft | 443 kts | 227° |
| 2026-05-04 20:08 | 35.26983 | -91.73388 | 37898 ft | 443 kts | 227° |
| 2026-05-04 20:09 | 35.22069 | -91.77885 | 37878 ft | 443 kts | 228° |
| 2026-05-04 20:09 | 35.17134 | -91.82396 | 37898 ft | 442 kts | 228° |
| 2026-05-04 20:10 | 35.12202 | -91.86896 | 37890 ft | 442 kts | 228° |
| 2026-05-04 20:10 | 35.07274 | -91.91387 | 37881 ft | 442 kts | 229° |
| 2026-05-04 20:11 | 35.02343 | -91.95870 | 37899 ft | 442 kts | 229° |
| 2026-05-04 20:11 | 34.97430 | -92.00334 | 37841 ft | 442 kts | 229° |
| 2026-05-04 20:12 | 34.92763 | -92.04565 | 37894 ft | 441 kts | 229° |
| 2026-05-04 20:12 | 34.87905 | -92.08967 | 37902 ft | 441 kts | 229° |
| 2026-05-04 20:13 | 34.82844 | -92.13306 | 37905 ft | 453 kts | 222° |
| 2026-05-04 20:13 | 34.79950 | -92.14958 | 37902 ft | 470 kts | 212° |
| 2026-05-04 20:13 | 34.76678 | -92.16051 | 37927 ft | 483 kts | 204° |
| 2026-05-04 20:14 | 34.69983 | -92.17540 | 37963 ft | 492 kts | 201° |
| 2026-05-04 20:14 | 34.66638 | -92.18158 | 38105 ft | 493 kts | 200° |
| 2026-05-04 20:14 | 34.63423 | -92.18736 | 38213 ft | 493 kts | 200° |
| 2026-05-04 20:15 | 34.56646 | -92.19979 | 38217 ft | 492 kts | 201° |
| 2026-05-04 20:15 | 34.49883 | -92.21267 | 38219 ft | 491 kts | 201° |
| 2026-05-04 20:16 | 34.43140 | -92.22574 | 38207 ft | 491 kts | 201° |
| 2026-05-04 20:16 | 34.36390 | -92.23887 | 38213 ft | 491 kts | 201° |
| 2026-05-04 20:17 | 34.29645 | -92.25194 | 38210 ft | 491 kts | 201° |
| 2026-05-04 20:17 | 34.22931 | -92.26490 | 38221 ft | 491 kts | 201° |
| 2026-05-04 20:18 | 34.16179 | -92.27779 | 38216 ft | 492 kts | 201° |
| 2026-05-04 20:18 | 34.09357 | -92.29054 | 38204 ft | 493 kts | 201° |
| 2026-05-04 20:19 | 34.02618 | -92.30306 | 38228 ft | 495 kts | 201° |
| 2026-05-04 20:19 | 33.95802 | -92.31576 | 38231 ft | 496 kts | 201° |
| 2026-05-04 20:20 | 33.88979 | -92.32844 | 38232 ft | 497 kts | 202° |
| 2026-05-04 20:20 | 33.82131 | -92.34117 | 38235 ft | 498 kts | 202° |
| 2026-05-04 20:21 | 33.75275 | -92.35387 | 38239 ft | 499 kts | 202° |
| 2026-05-04 20:21 | 33.66148 | -92.37074 | 38203 ft | 499 kts | 202° |
| 2026-05-04 20:22 | 33.59229 | -92.38354 | 38242 ft | 502 kts | 202° |
| 2026-05-04 20:22 | 33.52304 | -92.39635 | 38234 ft | 503 kts | 202° |
| 2026-05-04 20:23 | 33.45424 | -92.40898 | 38238 ft | 503 kts | 202° |
| 2026-05-04 20:23 | 33.38501 | -92.42168 | 38258 ft | 503 kts | 202° |
| 2026-05-04 20:24 | 33.31576 | -92.43439 | 38240 ft | 503 kts | 202° |
| 2026-05-04 20:24 | 33.24650 | -92.44708 | 38250 ft | 503 kts | 202° |
| 2026-05-04 20:25 | 33.17722 | -92.45977 | 38249 ft | 504 kts | 202° |
| 2026-05-04 20:25 | 33.10796 | -92.47242 | 38245 ft | 504 kts | 202° |
| 2026-05-04 20:26 | 33.03856 | -92.48511 | 38255 ft | 507 kts | 202° |
| 2026-05-04 20:26 | 32.96860 | -92.49789 | 38373 ft | 508 kts | 202° |
| 2026-05-04 20:27 | 32.89891 | -92.51049 | 38362 ft | 506 kts | 202° |
| 2026-05-04 20:27 | 32.82948 | -92.52307 | 38360 ft | 505 kts | 202° |
| 2026-05-04 20:28 | 32.75980 | -92.53573 | 38368 ft | 506 kts | 202° |
| 2026-05-04 20:28 | 32.69020 | -92.54833 | 38374 ft | 506 kts | 202° |
| 2026-05-04 20:29 | 32.62057 | -92.56093 | 38372 ft | 506 kts | 202° |
| 2026-05-04 20:29 | 32.55098 | -92.57350 | 38372 ft | 506 kts | 201° |
| 2026-05-04 20:30 | 32.48121 | -92.58609 | 38373 ft | 507 kts | 201° |
| 2026-05-04 20:30 | 32.41151 | -92.59865 | 38372 ft | 507 kts | 201° |
| 2026-05-04 20:31 | 32.34180 | -92.61119 | 38378 ft | 507 kts | 201° |
| 2026-05-04 20:31 | 32.27256 | -92.62363 | 38377 ft | 507 kts | 201° |
| 2026-05-04 20:32 | 32.20294 | -92.63611 | 38380 ft | 506 kts | 201° |
| 2026-05-04 20:32 | 32.13327 | -92.64859 | 38383 ft | 506 kts | 201° |
| 2026-05-04 20:33 | 32.06355 | -92.66106 | 38381 ft | 506 kts | 201° |
| 2026-05-04 20:33 | 31.99480 | -92.67583 | 38362 ft | 488 kts | 212° |
| 2026-05-04 20:34 | 31.96488 | -92.69165 | 38379 ft | 458 kts | 227° |
| 2026-05-04 20:34 | 31.94035 | -92.71374 | 38386 ft | 435 kts | 236° |
| 2026-05-04 20:34 | 31.89683 | -92.76268 | 38379 ft | 432 kts | 238° |
| 2026-05-04 20:35 | 31.85360 | -92.81202 | 38380 ft | 433 kts | 238° |
| 2026-05-04 20:35 | 31.81011 | -92.86125 | 38382 ft | 434 kts | 238° |
| 2026-05-04 20:36 | 31.76659 | -92.91031 | 38383 ft | 434 kts | 238° |
| 2026-05-04 20:36 | 31.72333 | -92.95901 | 38378 ft | 435 kts | 238° |
| 2026-05-04 20:37 | 31.67954 | -93.00820 | 38379 ft | 435 kts | 238° |
| 2026-05-04 20:37 | 31.63576 | -93.05730 | 38348 ft | 435 kts | 237° |
| 2026-05-04 20:38 | 31.59201 | -93.10630 | 38380 ft | 434 kts | 237° |
| 2026-05-04 20:38 | 31.54832 | -93.15517 | 38372 ft | 434 kts | 237° |
| 2026-05-04 20:39 | 31.50458 | -93.20405 | 38370 ft | 434 kts | 237° |
| 2026-05-04 20:39 | 31.46086 | -93.25284 | 38363 ft | 434 kts | 237° |
| 2026-05-04 20:40 | 31.41705 | -93.30166 | 38371 ft | 436 kts | 237° |
| 2026-05-04 20:40 | 31.37315 | -93.35047 | 38193 ft | 433 kts | 237° |
| 2026-05-04 20:41 | 31.35136 | -93.37468 | 37924 ft | 434 kts | 237° |
| 2026-05-04 20:41 | 31.32951 | -93.39897 | 37655 ft | 435 kts | 237° |
| 2026-05-04 20:41 | 31.30747 | -93.42345 | 37388 ft | 434 kts | 237° |
| 2026-05-04 20:41 | 31.28586 | -93.44729 | 37132 ft | 423 kts | 237° |
| 2026-05-04 20:42 | 31.26475 | -93.47055 | 36862 ft | 412 kts | 237° |
| 2026-05-04 20:42 | 31.24400 | -93.49352 | 36369 ft | 410 kts | 237° |
| 2026-05-04 20:42 | 31.22328 | -93.51659 | 35535 ft | 414 kts | 237° |
| 2026-05-04 20:42 | 31.20243 | -93.53975 | 34919 ft | 413 kts | 237° |
| 2026-05-04 20:43 | 31.18164 | -93.56275 | 34289 ft | 411 kts | 237° |
| 2026-05-04 20:43 | 31.16093 | -93.58564 | 33654 ft | 410 kts | 237° |
| 2026-05-04 20:43 | 31.14022 | -93.60848 | 33153 ft | 405 kts | 237° |
| 2026-05-04 20:43 | 31.11994 | -93.63079 | 32733 ft | 399 kts | 237° |
| 2026-05-04 20:44 | 31.09989 | -93.65286 | 32298 ft | 393 kts | 237° |
| 2026-05-04 20:44 | 31.08013 | -93.67463 | 31848 ft | 388 kts | 237° |
| 2026-05-04 20:44 | 31.06060 | -93.69614 | 31413 ft | 384 kts | 237° |
| 2026-05-04 20:44 | 31.04147 | -93.71721 | 30983 ft | 379 kts | 237° |
| 2026-05-04 20:45 | 31.02244 | -93.73816 | 30559 ft | 375 kts | 237° |
| 2026-05-04 20:45 | 31.00361 | -93.75888 | 30117 ft | 371 kts | 237° |
| 2026-05-04 20:45 | 30.98493 | -93.77942 | 29639 ft | 367 kts | 237° |
| 2026-05-04 20:45 | 30.96656 | -93.79960 | 29226 ft | 362 kts | 237° |
| 2026-05-04 20:46 | 30.94834 | -93.81960 | 28787 ft | 357 kts | 237° |
| 2026-05-04 20:46 | 30.93041 | -93.83926 | 28388 ft | 352 kts | 237° |
| 2026-05-04 20:46 | 30.91266 | -93.85877 | 27965 ft | 351 kts | 236° |
| 2026-05-04 20:46 | 30.89495 | -93.87823 | 27504 ft | 350 kts | 236° |
| 2026-05-04 20:47 | 30.87727 | -93.89764 | 27131 ft | 348 kts | 236° |
| 2026-05-04 20:47 | 30.85967 | -93.91694 | 26722 ft | 346 kts | 235° |
| 2026-05-04 20:47 | 30.84221 | -93.93612 | 26296 ft | 345 kts | 235° |
| 2026-05-04 20:47 | 30.82476 | -93.95526 | 25875 ft | 342 kts | 234° |
| 2026-05-04 20:48 | 30.80756 | -93.97413 | 25463 ft | 340 kts | 234° |
| 2026-05-04 20:48 | 30.79033 | -93.99302 | 25056 ft | 339 kts | 233° |
| 2026-05-04 20:48 | 30.77319 | -94.01182 | 24647 ft | 337 kts | 233° |
| 2026-05-04 20:48 | 30.75619 | -94.03044 | 24235 ft | 335 kts | 233° |
| 2026-05-04 20:49 | 30.73926 | -94.04897 | 23836 ft | 334 kts | 232° |
| 2026-05-04 20:49 | 30.72242 | -94.06740 | 23383 ft | 332 kts | 232° |
| 2026-05-04 20:49 | 30.70568 | -94.08570 | 22953 ft | 330 kts | 232° |
| 2026-05-04 20:49 | 30.68901 | -94.10392 | 22550 ft | 328 kts | 231° |
| 2026-05-04 20:50 | 30.67244 | -94.12202 | 22142 ft | 326 kts | 231° |
| 2026-05-04 20:50 | 30.65598 | -94.14000 | 21733 ft | 324 kts | 231° |
| 2026-05-04 20:50 | 30.63961 | -94.15785 | 21336 ft | 322 kts | 231° |
| 2026-05-04 20:50 | 30.62311 | -94.17530 | 20938 ft | 321 kts | 230° |
| 2026-05-04 20:51 | 30.60651 | -94.19254 | 20532 ft | 319 kts | 229° |
| 2026-05-04 20:51 | 30.59000 | -94.20963 | 20142 ft | 317 kts | 229° |
| 2026-05-04 20:51 | 30.57353 | -94.22667 | 19740 ft | 316 kts | 229° |
| 2026-05-04 20:51 | 30.55721 | -94.24354 | 19343 ft | 314 kts | 229° |
| 2026-05-04 20:52 | 30.54093 | -94.26037 | 18945 ft | 312 kts | 229° |
| 2026-05-04 20:52 | 30.52474 | -94.27710 | 18556 ft | 311 kts | 228° |
| 2026-05-04 20:52 | 30.50863 | -94.29374 | 18136 ft | 309 kts | 228° |
| 2026-05-04 20:52 | 30.49266 | -94.31022 | 17726 ft | 307 kts | 228° |
| 2026-05-04 20:53 | 30.47675 | -94.32663 | 17335 ft | 306 kts | 228° |
| 2026-05-04 20:53 | 30.46090 | -94.34299 | 16963 ft | 305 kts | 228° |
| 2026-05-04 20:53 | 30.44482 | -94.35962 | 16660 ft | 313 kts | 228° |
| 2026-05-04 20:53 | 30.42862 | -94.37630 | 16384 ft | 306 kts | 228° |
| 2026-05-04 20:54 | 30.41294 | -94.39239 | 16088 ft | 300 kts | 228° |
| 2026-05-04 20:54 | 30.39718 | -94.40823 | 15686 ft | 299 kts | 227° |
| 2026-05-04 20:54 | 30.38125 | -94.42361 | 15316 ft | 298 kts | 226° |
| 2026-05-04 20:54 | 30.36536 | -94.43879 | 14963 ft | 295 kts | 226° |
| 2026-05-04 20:55 | 30.34959 | -94.45383 | 14605 ft | 293 kts | 226° |
| 2026-05-04 20:55 | 30.33411 | -94.46858 | 14257 ft | 291 kts | 226° |
| 2026-05-04 20:55 | 30.31851 | -94.48344 | 13903 ft | 290 kts | 226° |
| 2026-05-04 20:55 | 30.30303 | -94.49818 | 13534 ft | 287 kts | 226° |
| 2026-05-04 20:56 | 30.28765 | -94.51283 | 13182 ft | 284 kts | 226° |
| 2026-05-04 20:56 | 30.27251 | -94.52724 | 12839 ft | 281 kts | 225° |
| 2026-05-04 20:56 | 30.25741 | -94.54161 | 12497 ft | 279 kts | 225° |
| 2026-05-04 20:56 | 30.24252 | -94.55576 | 12252 ft | 272 kts | 225° |
| 2026-05-04 20:57 | 30.22823 | -94.56929 | 12176 ft | 259 kts | 225° |
| 2026-05-04 20:57 | 30.21455 | -94.58225 | 11947 ft | 254 kts | 225° |
| 2026-05-04 20:57 | 30.20072 | -94.59495 | 11604 ft | 255 kts | 224° |
| 2026-05-04 20:57 | 30.18675 | -94.60752 | 11299 ft | 255 kts | 223° |
| 2026-05-04 20:58 | 30.17270 | -94.62008 | 11019 ft | 252 kts | 223° |
| 2026-05-04 20:58 | 30.15915 | -94.63215 | 10734 ft | 247 kts | 223° |
| 2026-05-04 20:58 | 30.14540 | -94.64440 | 10425 ft | 246 kts | 223° |
| 2026-05-04 20:58 | 30.13190 | -94.65643 | 10137 ft | 245 kts | 222° |
| 2026-05-04 20:59 | 30.11869 | -94.66816 | 10019 ft | 232 kts | 222° |
| 2026-05-04 20:59 | 30.10601 | -94.67943 | 9921 ft | 232 kts | 222° |
| 2026-05-04 20:59 | 30.09322 | -94.69085 | 9588 ft | 231 kts | 222° |
| 2026-05-04 20:59 | 30.08052 | -94.70216 | 9297 ft | 231 kts | 221° |
| 2026-05-04 21:00 | 30.06790 | -94.71339 | 9022 ft | 229 kts | 222° |
| 2026-05-04 21:00 | 30.05536 | -94.72454 | 8749 ft | 227 kts | 222° |
| 2026-05-04 21:00 | 30.04294 | -94.73579 | 8487 ft | 225 kts | 222° |
| 2026-05-04 21:00 | 30.03095 | -94.74674 | 8241 ft | 216 kts | 222° |
| 2026-05-04 21:01 | 30.01944 | -94.75776 | 8025 ft | 219 kts | 228° |
| 2026-05-04 21:01 | 30.01068 | -94.77200 | 7759 ft | 223 kts | 250° |
| 2026-05-04 21:01 | 30.00751 | -94.78927 | 7582 ft | 218 kts | 265° |
| 2026-05-04 21:01 | 30.00654 | -94.80674 | 7307 ft | 219 kts | 268° |
| 2026-05-04 21:02 | 30.00633 | -94.82448 | 7050 ft | 222 kts | 270° |
| 2026-05-04 21:02 | 30.00765 | -94.84210 | 6812 ft | 223 kts | 287° |
| 2026-05-04 21:02 | 30.01226 | -94.85912 | 6602 ft | 222 kts | 280° |
| 2026-05-04 21:02 | 30.01475 | -94.87670 | 6363 ft | 222 kts | 276° |
| 2026-05-04 21:03 | 30.01654 | -94.89435 | 6132 ft | 222 kts | 274° |
| 2026-05-04 21:03 | 30.01786 | -94.91191 | 5907 ft | 217 kts | 271° |
| 2026-05-04 21:03 | 30.01871 | -94.92915 | 5677 ft | 217 kts | 270° |
| 2026-05-04 21:03 | 30.01908 | -94.94644 | 5475 ft | 217 kts | 267° |
| 2026-05-04 21:04 | 30.01897 | -94.96402 | 5236 ft | 221 kts | 265° |
| 2026-05-04 21:04 | 30.01840 | -94.98160 | 4993 ft | 217 kts | 262° |
| 2026-05-04 21:04 | 30.01735 | -94.99902 | 4767 ft | 219 kts | 261° |
| 2026-05-04 21:04 | 30.01581 | -95.01652 | 4538 ft | 218 kts | 259° |
| 2026-05-04 21:05 | 30.01381 | -95.03381 | 4306 ft | 218 kts | 258° |
| 2026-05-04 21:05 | 30.01135 | -95.05086 | 4094 ft | 214 kts | 256° |
| 2026-05-04 21:05 | 30.00843 | -95.06780 | 3856 ft | 216 kts | 255° |
| 2026-05-04 21:05 | 30.00590 | -95.08494 | 3660 ft | 217 kts | 258° |
| 2026-05-04 21:06 | 30.00446 | -95.10223 | 3424 ft | 217 kts | 262° |
| 2026-05-04 21:06 | 30.00404 | -95.11973 | 3189 ft | 218 kts | 265° |
| 2026-05-04 21:06 | 30.00455 | -95.13714 | 3011 ft | 218 kts | 269° |
| 2026-05-04 21:06 | 30.00585 | -95.15451 | 2545 ft | 217 kts | 272° |
| 2026-05-04 21:07 | 30.00746 | -95.17139 | 2124 ft | 205 kts | 271° |
| 2026-05-04 21:07 | 30.00817 | -95.18691 | 1996 ft | 180 kts | 266° |
| 2026-05-04 21:07 | 30.00806 | -95.20034 | 2001 ft | 157 kts | 264° |
| 2026-05-04 21:07 | 30.00764 | -95.21284 | 2007 ft | 155 kts | 262° |
| 2026-05-04 21:08 | 30.00725 | -95.22521 | 1918 ft | 155 kts | 262° |
| 2026-05-04 21:08 | 30.00716 | -95.23338 | 1780 ft | 154 kts | 264° |
| 2026-05-04 21:08 | 30.00722 | -95.24585 | 1560 ft | 156 kts | 265° |
| 2026-05-04 21:08 | 30.00723 | -95.25838 | 1349 ft | 156 kts | 264° |
| 2026-05-04 21:09 | 30.00722 | -95.27089 | 1136 ft | 155 kts | 263° |
| 2026-05-04 21:09 | 30.00720 | -95.28349 | 933 ft | 159 kts | 265° |
| 2026-05-04 21:09 | 30.00720 | -95.29612 | 727 ft | 155 kts | 266° |
| 2026-05-04 21:09 | 30.00721 | -95.30855 | 519 ft | 155 kts | 263° |
| 2026-05-04 21:10 | 30.00719 | -95.32062 | 318 ft | 144 kts | 266° |
| 2026-05-04 21:10 | 30.00730 | -95.33173 | 124 ft | 133 kts | 266° |
| 2026-05-04 21:10 | 30.00700 | -95.34129 | 103 ft | 93 kts | 270° |
| 2026-05-04 21:10 | 30.00714 | -95.34524 | 104 ft | 6 kts | 270° |
| 2026-05-04 21:11 | 30.00714 | -95.34556 | 104 ft | 14 kts | 270° |
| 2026-05-04 21:11 | 30.00711 | -95.34766 | 101 ft | 33 kts | 259° |
| 2026-05-04 21:11 | 30.00639 | -95.35003 | 101 ft | 22 kts | 244° |
| 2026-05-04 21:11 | 30.00628 | -95.35026 | 102 ft | 1 kts | 237° |
| 2026-05-04 21:12 | 30.00626 | -95.35031 | 101 ft | 0 kts | 237° |
| 2026-05-04 21:12 | 30.00622 | -95.35037 | 101 ft | 2 kts | 237° |
| 2026-05-04 21:13 | 30.00613 | -95.35054 | 100 ft | 4 kts | 237° |
| 2026-05-04 21:13 | 30.00593 | -95.35092 | 101 ft | 7 kts | 240° |
| 2026-05-04 21:13 | 30.00573 | -95.35152 | 99 ft | 9 kts | 252° |
| 2026-05-04 21:13 | 30.00559 | -95.35229 | 102 ft | 11 kts | 265° |
| 2026-05-04 21:14 | 30.00558 | -95.35321 | 102 ft | 12 kts | 270° |
| 2026-05-04 21:14 | 30.00557 | -95.35430 | 101 ft | 15 kts | 268° |
| 2026-05-04 21:14 | 30.00552 | -95.35551 | 98 ft | 16 kts | 258° |
| 2026-05-04 21:14 | 30.00484 | -95.35647 | 100 ft | 16 kts | 199° |
| 2026-05-04 21:15 | 30.00374 | -95.35650 | 99 ft | 15 kts | 182° |
| 2026-05-04 21:15 | 30.00296 | -95.35655 | 98 ft | 9 kts | 183° |
| 2026-05-04 21:15 | 30.00252 | -95.35655 | 98 ft | 7 kts | 173° |
| 2026-05-04 21:15 | 30.00208 | -95.35627 | 106 ft | 8 kts | 139° |
| 2026-05-04 21:16 | 30.00163 | -95.35579 | 98 ft | 9 kts | 136° |
| 2026-05-04 21:16 | 30.00105 | -95.35532 | 99 ft | 11 kts | 150° |
| 2026-05-04 21:16 | 30.00029 | -95.35498 | 100 ft | 12 kts | 167° |
| 2026-05-04 21:16 | 29.99939 | -95.35487 | 100 ft | 14 kts | 179° |
| 2026-05-04 21:17 | 29.99838 | -95.35485 | 100 ft | 15 kts | 179° |
| 2026-05-04 21:17 | 29.99731 | -95.35484 | 99 ft | 16 kts | 180° |
| 2026-05-04 21:17 | 29.99621 | -95.35485 | 99 ft | 13 kts | 180° |
| 2026-05-04 21:17 | 29.99524 | -95.35486 | 99 ft | 15 kts | 180° |
| 2026-05-04 21:18 | 29.99418 | -95.35486 | 101 ft | 16 kts | 180° |
| 2026-05-04 21:18 | 29.99307 | -95.35486 | 99 ft | 17 kts | 180° |
| 2026-05-04 21:18 | 29.99188 | -95.35485 | 97 ft | 17 kts | 179° |
| 2026-05-04 21:18 | 29.99070 | -95.35485 | 100 ft | 17 kts | 179° |
| 2026-05-04 21:19 | 29.98962 | -95.35484 | 102 ft | 15 kts | 179° |
| 2026-05-04 21:19 | 29.98855 | -95.35481 | 103 ft | 15 kts | 170° |
| 2026-05-04 21:19 | 29.98759 | -95.35429 | 102 ft | 15 kts | 148° |
| 2026-05-04 21:19 | 29.98666 | -95.35374 | 102 ft | 15 kts | 154° |
| 2026-05-04 21:20 | 29.98569 | -95.35318 | 102 ft | 16 kts | 153° |
| 2026-05-04 21:20 | 29.98478 | -95.35260 | 102 ft | 8 kts | 150° |
| 2026-05-04 21:20 | 29.98433 | -95.35230 | 103 ft | 4 kts | 150° |
| 2026-05-04 21:20 | 29.98402 | -95.35209 | 104 ft | 6 kts | 145° |
| 2026-05-04 21:21 | 29.98382 | -95.35163 | 101 ft | 8 kts | 94° |
| 2026-05-04 21:21 | 29.98384 | -95.35093 | 100 ft | 10 kts | 88° |
| 2026-05-04 21:21 | 29.98384 | -95.35004 | 102 ft | 12 kts | 91° |
| 2026-05-04 21:21 | 29.98383 | -95.34898 | 102 ft | 14 kts | 91° |
| 2026-05-04 21:22 | 29.98384 | -95.34778 | 102 ft | 16 kts | 89° |
| 2026-05-04 21:22 | 29.98383 | -95.34646 | 102 ft | 17 kts | 90° |
| 2026-05-04 21:22 | 29.98384 | -95.34534 | 102 ft | 8 kts | 87° |
| 2026-05-04 21:22 | 29.98382 | -95.34459 | 102 ft | 10 kts | 91° |
| 2026-05-04 21:23 | 29.98379 | -95.34376 | 102 ft | 11 kts | 94° |
| 2026-05-04 21:23 | 29.98376 | -95.34283 | 103 ft | 13 kts | 89° |
| 2026-05-04 21:23 | 29.98377 | -95.34176 | 103 ft | 14 kts | 91° |
| 2026-05-04 21:23 | 29.98372 | -95.34061 | 107 ft | 15 kts | 111° |
| 2026-05-04 21:24 | 29.98331 | -95.33952 | 104 ft | 15 kts | 107° |
| 2026-05-04 21:24 | 29.98318 | -95.33830 | 104 ft | 16 kts | 88° |
| 2026-05-04 21:24 | 29.98315 | -95.33707 | 104 ft | 15 kts | 94° |
| 2026-05-04 21:24 | 29.98306 | -95.33581 | 105 ft | 16 kts | 95° |
| 2026-05-04 21:25 | 29.98302 | -95.33449 | 105 ft | 16 kts | 86° |
| 2026-05-04 21:25 | 29.98349 | -95.33397 | 105 ft | 7 kts | 358° |
| 2026-05-04 21:25 | 29.98404 | -95.33406 | 104 ft | 9 kts | 355° |
| 2026-05-04 21:25 | 29.98475 | -95.33409 | 104 ft | 10 kts | 349° |
| 2026-05-04 21:26 | 29.98508 | -95.33430 | 104 ft | 0 kts | 327° |
| 2026-05-04 21:26 | 29.98512 | -95.33433 | 104 ft | 1 kts | 328° |
| 2026-05-04 21:26 | 29.98519 | -95.33438 | 104 ft | 0 kts | 328° |
| 2026-05-04 21:26 | 29.98522 | -95.33440 | 104 ft | 0 kts | 327° |
| 2026-05-04 21:27 | 29.98523 | -95.33441 | 104 ft | 0 kts | 328° |